createdAt,value
2018-10-18T00:02:02.055Z,99.90
2018-10-18T00:07:05.666Z,99.90
2018-10-18T00:12:08.212Z,99.90
2018-10-18T00:17:16.286Z,99.90
2018-10-18T00:22:18.775Z,99.90
2018-10-18T00:27:21.272Z,99.90
2018-10-18T00:32:23.754Z,99.90
2018-10-18T00:37:26.269Z,99.90
2018-10-18T00:42:28.799Z,99.90
2018-10-18T00:47:31.399Z,99.90
2018-10-18T00:52:33.951Z,99.90
2018-10-18T00:57:36.695Z,99.90
2018-10-18T01:02:39.277Z,99.90
2018-10-18T01:07:41.923Z,99.90
2018-10-18T01:12:44.517Z,99.90
2018-10-18T01:17:46.951Z,99.90
2018-10-18T01:22:49.472Z,99.90
2018-10-18T01:27:51.981Z,99.90
2018-10-18T01:32:54.495Z,99.90
2018-10-18T01:37:57.138Z,99.90
2018-10-18T01:42:59.663Z,99.90
2018-10-18T01:48:02.261Z,99.90
2018-10-18T01:53:05.371Z,99.90
2018-10-18T01:58:07.886Z,99.90
2018-10-18T02:03:10.404Z,99.90
2018-10-18T02:08:13.150Z,99.90
2018-10-18T02:13:15.511Z,99.90
2018-10-18T02:18:18.035Z,99.90
2018-10-18T02:23:20.667Z,99.90
2018-10-18T02:28:23.184Z,99.90
2018-10-18T02:33:25.754Z,99.90
2018-10-18T02:38:28.288Z,99.90
2018-10-18T02:43:30.821Z,99.90
2018-10-18T02:48:33.343Z,99.90
2018-10-18T02:53:35.863Z,99.90
2018-10-18T02:58:38.384Z,99.90
2018-10-18T03:03:40.933Z,99.90
2018-10-18T03:08:43.496Z,99.90
2018-10-18T03:13:46.057Z,99.90
2018-10-18T03:18:48.574Z,99.90
2018-10-18T03:23:51.187Z,99.90
2018-10-18T03:28:53.970Z,99.90
2018-10-18T03:33:56.477Z,99.90
2018-10-18T03:38:59.087Z,99.90
2018-10-18T03:44:01.639Z,99.90
2018-10-18T03:49:04.663Z,99.90
2018-10-18T03:54:07.367Z,99.90
2018-10-18T03:59:09.759Z,99.90
2018-10-18T04:04:12.316Z,99.90
2018-10-18T04:09:14.872Z,99.90
2018-10-18T04:14:17.399Z,99.90
2018-10-18T04:19:19.946Z,99.90
2018-10-18T04:24:22.452Z,99.90
2018-10-18T04:29:25.039Z,99.90
2018-10-18T04:34:27.608Z,99.90
2018-10-18T04:39:30.120Z,99.90
2018-10-18T04:49:35.141Z,99.90
2018-10-18T04:54:37.647Z,99.90
2018-10-18T04:59:40.157Z,99.90
2018-10-18T05:04:52.814Z,99.90
2018-10-18T05:09:55.344Z,99.90
2018-10-18T05:14:57.891Z,99.90
2018-10-18T05:20:00.409Z,99.90
2018-10-18T05:25:03.193Z,99.90
2018-10-18T05:30:06.252Z,99.90
2018-10-18T05:35:08.803Z,99.90
2018-10-18T05:40:11.343Z,99.90
2018-10-18T05:45:13.887Z,99.90
2018-10-18T05:50:16.441Z,99.90
2018-10-18T05:55:18.991Z,99.90
2018-10-18T06:00:21.590Z,99.90
2018-10-18T06:05:24.077Z,99.90
2018-10-18T06:10:38.316Z,99.90
2018-10-18T06:15:40.751Z,99.90
2018-10-18T06:20:43.337Z,99.90
2018-10-18T06:25:45.882Z,99.90
2018-10-18T06:30:48.411Z,99.90
2018-10-18T06:35:50.943Z,99.90
2018-10-18T06:40:53.505Z,99.90
2018-10-18T06:45:56.002Z,99.90
2018-10-18T06:50:58.550Z,99.90
2018-10-18T06:56:01.195Z,99.90
2018-10-18T07:01:03.988Z,99.90
2018-10-18T07:06:07.171Z,99.90
2018-10-18T07:11:09.704Z,99.90
2018-10-18T07:16:12.232Z,99.90
2018-10-18T07:21:14.782Z,99.90
2018-10-18T07:26:17.328Z,99.90
2018-10-18T07:31:19.843Z,99.90
2018-10-18T07:36:22.402Z,99.90
2018-10-18T07:41:25.050Z,99.90
2018-10-18T07:46:27.745Z,99.90
2018-10-18T07:51:30.272Z,99.90
2018-10-18T07:56:32.803Z,99.90
2018-10-18T08:01:35.323Z,99.90
2018-10-18T08:06:37.848Z,99.90
2018-10-18T08:11:40.686Z,99.90
2018-10-18T08:16:43.301Z,99.90
2018-10-18T08:21:45.806Z,99.90
2018-10-18T08:26:48.375Z,99.90
2018-10-18T08:31:51.055Z,99.90
2018-10-18T08:36:53.471Z,99.90
2018-10-18T08:41:55.991Z,99.90
2018-10-18T08:46:58.557Z,99.90
2018-10-18T08:52:01.140Z,99.90
2018-10-18T08:57:03.747Z,99.90
2018-10-18T09:02:06.299Z,99.90
2018-10-18T09:07:08.950Z,99.90
2018-10-18T09:12:11.412Z,99.90
2018-10-18T09:17:14.168Z,98.20
2018-10-18T09:22:16.691Z,97.10
2018-10-18T09:27:19.238Z,95.30
2018-10-18T09:32:21.911Z,92.20
2018-10-18T09:37:24.506Z,84.40
2018-10-18T09:42:27.032Z,83.90
2018-10-18T09:47:29.554Z,78.40
2018-10-18T09:52:32.091Z,74.60
2018-10-18T09:57:34.635Z,71.20
2018-10-18T10:02:42.730Z,70.60
2018-10-18T10:07:45.562Z,71.80
2018-10-18T10:12:48.084Z,67.90
2018-10-18T10:17:50.689Z,66.50
2018-10-18T10:22:53.127Z,65.90
2018-10-18T10:27:56.261Z,62.90
2018-10-18T10:32:58.875Z,58.90
2018-10-18T10:38:01.362Z,58.00
2018-10-18T10:43:03.989Z,59.10
2018-10-18T10:48:06.556Z,58.20
2018-10-18T10:53:09.052Z,59.80
2018-10-18T10:58:11.619Z,57.40
2018-10-18T11:03:14.173Z,59.30
2018-10-18T11:08:16.791Z,55.50
2018-10-18T11:13:19.267Z,54.10
2018-10-18T11:18:21.794Z,53.70
2018-10-18T11:23:24.342Z,53.20
2018-10-18T11:28:26.851Z,52.60
2018-10-18T11:33:29.462Z,49.60
2018-10-18T11:38:31.976Z,48.50
2018-10-18T11:43:34.501Z,46.60
2018-10-18T11:48:37.076Z,46.70
2018-10-18T11:53:39.600Z,44.10
2018-10-18T11:58:42.204Z,42.20
2018-10-18T12:03:44.735Z,41.70
2018-10-18T12:08:47.291Z,41.30
2018-10-18T12:13:49.851Z,38.20
2018-10-18T12:18:54.621Z,35.50
2018-10-18T12:23:57.102Z,35.20
2018-10-18T12:28:59.666Z,34.20
2018-10-18T12:34:02.161Z,34.00
2018-10-18T12:39:09.895Z,33.20
2018-10-18T12:44:12.432Z,32.50
2018-10-18T12:49:15.044Z,32.60
2018-10-18T12:54:17.729Z,31.30
2018-10-18T12:59:20.261Z,31.30
2018-10-18T13:04:22.867Z,30.00
2018-10-18T13:09:25.947Z,29.40
2018-10-18T13:14:29.397Z,28.70
2018-10-18T13:19:31.916Z,29.40
2018-10-18T13:24:34.456Z,30.60
2018-10-18T13:29:36.978Z,29.80
2018-10-18T13:34:39.508Z,27.50
2018-10-18T13:39:42.016Z,29.00
2018-10-18T13:44:44.576Z,28.20
2018-10-18T13:49:47.099Z,28.40
2018-10-18T13:54:49.639Z,28.40
2018-10-18T14:00:05.550Z,27.70
2018-10-18T14:05:08.179Z,28.00
2018-10-18T14:10:10.804Z,28.10
2018-10-18T14:15:13.763Z,27.70
2018-10-18T14:20:16.478Z,27.90
2018-10-18T14:25:18.886Z,29.10
2018-10-18T14:30:21.522Z,29.50
2018-10-18T14:35:23.983Z,29.90
2018-10-18T14:40:26.516Z,28.80
2018-10-18T14:45:29.100Z,28.40
2018-10-18T14:50:31.882Z,29.40
2018-10-18T14:55:34.244Z,30.50
2018-10-18T15:00:36.784Z,30.20
2018-10-18T15:05:39.307Z,30.50
2018-10-18T15:10:41.830Z,30.40
2018-10-18T15:15:44.378Z,31.30
2018-10-18T15:20:46.921Z,31.60
2018-10-18T15:25:49.844Z,32.60
2018-10-18T15:30:52.296Z,33.30
2018-10-18T15:35:54.836Z,36.10
2018-10-18T15:40:57.416Z,37.60
2018-10-18T15:45:59.938Z,42.60
2018-10-18T15:51:02.565Z,47.60
2018-10-18T15:56:05.074Z,51.10
2018-10-18T16:01:07.679Z,53.40
2018-10-18T16:06:10.439Z,56.80
2018-10-18T16:11:13.017Z,58.90
2018-10-18T16:16:16.415Z,62.60
2018-10-18T16:21:19.038Z,67.50
2018-10-18T16:26:21.710Z,76.70
2018-10-18T16:31:24.423Z,93.30
2018-10-18T16:36:27.920Z,99.90
2018-10-18T16:41:32.073Z,99.90
2018-10-18T16:46:35.091Z,99.90
2018-10-18T16:51:37.636Z,99.90
2018-10-18T16:56:40.183Z,99.90
2018-10-18T17:01:42.728Z,99.90
2018-10-18T17:06:45.367Z,99.90
2018-10-18T17:11:49.519Z,99.90
2018-10-18T17:16:52.081Z,99.90
2018-10-18T17:21:54.902Z,99.90
2018-10-18T17:26:57.506Z,99.90
2018-10-18T17:32:00.115Z,99.90
2018-10-18T17:37:02.636Z,99.90
2018-10-18T17:42:05.300Z,99.90
2018-10-18T17:47:11.002Z,99.90
2018-10-18T17:52:16.017Z,99.90
2018-10-18T17:57:18.600Z,99.90
2018-10-18T18:02:21.248Z,99.90
2018-10-18T18:07:24.115Z,99.90
2018-10-18T18:12:26.689Z,99.90
2018-10-18T18:17:31.438Z,99.90
2018-10-18T18:22:34.078Z,99.90
2018-10-18T18:27:36.662Z,99.90
2018-10-18T18:32:39.562Z,99.90
2018-10-18T18:37:42.207Z,99.90
2018-10-18T18:42:44.802Z,99.90
2018-10-18T18:47:49.193Z,99.90
2018-10-18T18:52:51.913Z,99.90
2018-10-18T18:57:54.512Z,99.90
2018-10-18T19:02:57.101Z,99.90
2018-10-18T19:07:59.628Z,99.90
2018-10-18T19:13:02.251Z,99.90
2018-10-18T19:18:04.987Z,99.90
2018-10-18T19:23:07.739Z,99.90
2018-10-18T19:28:10.306Z,99.90
2018-10-18T19:33:12.952Z,99.90
2018-10-18T19:38:15.492Z,99.90
2018-10-18T19:43:18.107Z,99.90
2018-10-18T19:48:20.780Z,99.90
2018-10-18T19:53:23.327Z,99.90
2018-10-18T19:58:25.888Z,99.90
2018-10-18T20:03:28.556Z,99.90
2018-10-18T20:08:31.143Z,99.90
2018-10-18T20:13:33.702Z,99.90
2018-10-18T20:18:36.374Z,99.90
2018-10-18T20:23:38.940Z,99.90
2018-10-18T20:28:41.470Z,99.90
2018-10-18T20:33:44.104Z,99.90
2018-10-18T20:38:46.692Z,99.90
2018-10-18T20:43:49.335Z,99.90
2018-10-18T20:48:51.888Z,99.90
2018-10-18T20:53:54.433Z,99.90
2018-10-18T20:58:56.978Z,99.90
2018-10-18T21:03:59.518Z,99.90
2018-10-18T21:09:02.136Z,99.90
2018-10-18T21:14:05.492Z,99.90
2018-10-18T21:19:08.063Z,99.90
2018-10-18T21:24:10.720Z,99.90
2018-10-18T21:29:13.298Z,99.90
2018-10-18T21:34:15.872Z,99.90
2018-10-18T21:39:30.650Z,99.90
2018-10-18T21:44:35.540Z,99.90
2018-10-18T21:49:38.051Z,99.90
2018-10-18T21:54:40.580Z,99.90
2018-10-18T21:59:43.115Z,99.90
2018-10-18T22:04:45.796Z,99.90
2018-10-18T22:09:48.340Z,99.90
2018-10-18T22:14:50.855Z,99.90
2018-10-18T22:19:54.213Z,99.90
2018-10-18T22:24:56.767Z,99.90
2018-10-18T22:29:59.355Z,99.90
2018-10-18T22:35:01.917Z,99.90
2018-10-18T22:40:05.484Z,99.90
2018-10-18T22:45:08.461Z,99.90
2018-10-18T22:50:10.946Z,99.90
2018-10-18T22:55:13.451Z,99.90
2018-10-18T23:00:15.976Z,99.90
2018-10-18T23:05:18.496Z,99.90
2018-10-18T23:10:21.005Z,99.90
2018-10-18T23:15:23.528Z,99.90
2018-10-18T23:20:26.057Z,99.90
2018-10-18T23:25:28.744Z,99.90
2018-10-18T23:30:31.255Z,99.90
2018-10-18T23:35:33.781Z,99.90
2018-10-18T23:40:36.288Z,99.90
2018-10-18T23:45:38.807Z,99.90
2018-10-18T23:50:42.263Z,99.90
2018-10-18T23:55:44.784Z,99.90
